Terminal Aerodrome Forecast
Issued by NWS Sioux Falls, SD

Home | Current Version | Previous Version | Graphics & Text | Print | Product List | Glossary Off
Versions: 1 2 3 4 5 6 7 8 9 10 11 12 13 14 15 16 17 18

603
FTUS43 KFSD 201021 AAA
TAFFSD
TAF AMD
KFSD 201021Z 2010/2106 17011KT 5SM BR OVC003
     FM201400 16010KT 2SM -DZ BR OVC003
     FM201800 14008KT 4SM BR OVC008=

USA.gov is the U.S. government's official web portal to all federal, state and local government web resources and services.